Time;durP1;ratioP1;P1;durP2;ratioP2;P2;SDS_P1;SDS_P2;PMS_P1;PMS_P2;Temp;Humidity;BMP_temperature;BMP_pressure;BME280_temperature;BME280_humidity;BME280_pressure;Samples;Min_cycle;Max_cycle;Signal;HPM_P1;HPM_P2
2023/02/17 00:01:19;;;;;;;;;13.25;11.75;;;;;-147.17;100.00;-15917.19;5009715;28;51190;-58
2023/02/17 00:03:47;;;;;;;;;15.00;15.00;;;;;-147.17;100.00;-15917.19;5015434;28;52300;-56
2023/02/17 00:06:13;;;;;;;;;9.00;8.75;;;;;-147.17;100.00;-15917.19;5018947;28;51034;-57
2023/02/17 00:08:38;;;;;;;;;13.00;12.25;;;;;-147.17;100.00;-15917.19;5020011;28;51143;-57
2023/02/17 00:11:04;;;;;;;;;15.00;14.00;;;;;-147.17;100.00;-15917.19;5026143;28;51389;-57
2023/02/17 00:13:29;;;;;;;;;14.00;13.50;;;;;-147.17;100.00;-15917.19;5006704;28;51174;-58
2023/02/17 00:15:55;;;;;;;;;15.00;15.00;;;;;-147.17;100.00;-15917.19;5028604;28;51295;-57
2023/02/17 00:18:21;;;;;;;;;13.25;12.75;;;;;-147.17;100.00;-15917.19;5013584;28;51564;-56
2023/02/17 00:20:47;;;;;;;;;13.00;13.00;;;;;-147.17;100.00;-15917.19;5024561;28;51122;-57
2023/02/17 00:23:12;;;;;;;;;13.50;12.00;;;;;-147.17;100.00;-15917.19;5010210;28;52771;-59
2023/02/17 00:25:38;;;;;;;;;14.00;12.75;;;;;-147.17;100.00;-15917.19;5019520;28;50996;-58
2023/02/17 00:28:03;;;;;;;;;17.00;14.00;;;;;-147.17;100.00;-15917.19;5016549;28;51232;-57
2023/02/17 00:30:29;;;;;;;;;15.25;14.25;;;;;-147.17;100.00;-15917.19;5003747;28;51083;-56
2023/02/17 00:32:54;;;;;;;;;14.50;13.25;;;;;-147.17;100.00;-15917.19;5026484;28;51509;-57
2023/02/17 00:35:20;;;;;;;;;14.25;14.00;;;;;-147.17;100.00;-15917.19;5027652;28;51050;-56
2023/02/17 00:37:45;;;;;;;;;13.25;13.25;;;;;-147.17;100.00;-15917.19;5023589;28;51249;-57
2023/02/17 00:40:14;;;;;;;;;13.25;12.75;;;;;-147.17;100.00;-15917.19;5012375;28;51217;-57
2023/02/17 00:42:40;;;;;;;;;14.50;14.50;;;;;-147.17;100.00;-15917.19;5023985;28;50970;-57
2023/02/17 00:45:06;;;;;;;;;12.75;12.25;;;;;-147.17;100.00;-15917.19;5030640;28;51144;-57
2023/02/17 00:47:32;;;;;;;;;14.25;13.00;;;;;-147.17;100.00;-15917.19;5027233;28;51166;-57
2023/02/17 00:49:57;;;;;;;;;12.75;12.00;;;;;-147.17;100.00;-15917.19;5021562;28;51104;-56
2023/02/17 00:52:23;;;;;;;;;12.75;12.00;;;;;-147.17;100.00;-15917.19;5013539;28;51907;-58
2023/02/17 00:54:48;;;;;;;;;13.00;12.50;;;;;-147.17;100.00;-15917.19;5012589;28;51056;-56
2023/02/17 00:57:14;;;;;;;;;14.00;13.00;;;;;-147.17;100.00;-15917.19;5017836;28;51110;-57
2023/02/17 00:59:39;;;;;;;;;13.75;13.75;;;;;-147.17;100.00;-15917.19;5020271;28;51057;-56
2023/02/17 01:02:05;;;;;;;;;12.33;12.00;;;;;-147.17;100.00;-15917.19;5032149;28;51089;-56
2023/02/17 01:04:30;;;;;;;;;14.25;13.25;;;;;-147.17;100.00;-15917.19;5014670;28;51223;-56
2023/02/17 01:06:55;;;;;;;;;12.25;11.50;;;;;-147.17;100.00;-15917.19;4996573;28;51091;-56
2023/02/17 01:09:21;;;;;;;;;12.50;11.75;;;;;-147.17;100.00;-15917.19;5029828;28;51125;-57
2023/02/17 01:11:46;;;;;;;;;16.00;13.75;;;;;-147.17;100.00;-15917.19;5024799;28;52428;-56
2023/02/17 01:14:13;;;;;;;;;13.75;13.75;;;;;-147.17;100.00;-15917.19;5020637;28;50983;-56
2023/02/17 01:16:42;;;;;;;;;12.00;11.75;;;;;-147.17;100.00;-15917.19;5015664;28;51267;-56
2023/02/17 01:19:11;;;;;;;;;11.50;11.00;;;;;-147.17;100.00;-15917.19;5015918;28;51058;-57
2023/02/17 01:21:37;;;;;;;;;11.00;9.67;;;;;-147.17;100.00;-15917.19;5018846;28;52267;-57
2023/02/17 01:24:05;;;;;;;;;9.67;9.67;;;;;-147.17;100.00;-15917.19;5031656;28;51119;-58
2023/02/17 01:26:33;;;;;;;;;11.67;11.67;;;;;-147.17;100.00;-15917.19;5019161;28;51048;-56
2023/02/17 01:28:58;;;;;;;;;10.00;9.00;;;;;-147.17;100.00;-15917.19;5015870;28;51090;-56
2023/02/17 01:31:26;;;;;;;;;10.33;10.33;;;;;-147.17;100.00;-15917.19;5023230;28;51620;-58
2023/02/17 01:33:53;;;;;;;;;12.25;12.25;;;;;-147.17;100.00;-15917.19;5024882;28;51190;-58
2023/02/17 01:36:19;;;;;;;;;9.00;8.00;;;;;-147.17;100.00;-15917.19;5022963;28;51071;-58
2023/02/17 01:38:47;;;;;;;;;12.67;11.00;;;;;-147.17;100.00;-15917.19;5015407;28;50910;-58
2023/02/17 01:41:14;;;;;;;;;13.50;13.00;;;;;-147.17;100.00;-15917.19;5022656;28;51298;-58
2023/02/17 01:43:39;;;;;;;;;12.25;12.00;;;;;-147.17;100.00;-15917.19;5020049;28;51019;-57
2023/02/17 01:46:06;;;;;;;;;16.00;15.00;;;;;-147.17;100.00;-15917.19;5015301;28;50979;-58
2023/02/17 01:48:47;;;;;;;;;14.50;14.00;;;;;-147.17;100.00;-15917.19;5017431;28;51188;-57
2023/02/17 01:51:22;;;;;;;;;15.25;15.25;;;;;-147.17;100.00;-15917.19;5027473;28;52554;-56
2023/02/17 01:53:54;;;;;;;;;15.75;14.25;;;;;-147.17;100.00;-15917.19;5016494;28;51161;-56
2023/02/17 01:56:21;;;;;;;;;15.50;14.25;;;;;-147.17;100.00;-15917.19;5022669;28;51168;-57
2023/02/17 01:58:54;;;;;;;;;12.50;12.50;;;;;-147.17;100.00;-15917.19;5015878;28;51364;-56
2023/02/17 02:01:20;;;;;;;;;14.00;14.00;;;;;-147.17;100.00;-15917.19;5012019;28;51074;-56
2023/02/17 02:03:46;;;;;;;;;14.75;12.50;;;;;-147.17;100.00;-15917.19;5026346;28;51125;-56
2023/02/17 02:06:18;;;;;;;;;15.50;15.50;;;;;-147.17;100.00;-15917.19;5022952;28;51149;-58
2023/02/17 02:08:51;;;;;;;;;16.75;14.50;;;;;-147.17;100.00;-15917.19;5027555;28;51260;-57
2023/02/17 02:11:17;;;;;;;;;14.75;13.00;;;;;-147.17;100.00;-15917.19;5006428;28;53081;-58
2023/02/17 02:13:42;;;;;;;;;17.25;16.00;;;;;-147.17;100.00;-15917.19;5012435;28;50967;-58
2023/02/17 02:16:45;;;;;;;;;18.25;16.00;;;;;-147.17;100.00;-15917.19;5007651;28;51888;-58
2023/02/17 02:19:25;;;;;;;;;5.00;4.00;;;;;-147.17;100.00;-15917.19;4998500;28;50979;-58
2023/02/17 02:22:26;;;;;;;;;16.75;16.50;;;;;-147.17;100.00;-15917.19;5001912;28;52313;-58
2023/02/17 02:25:20;;;;;;;;;16.00;16.00;;;;;-147.17;100.00;-15917.19;4972828;28;51314;-56
2023/02/17 02:28:16;;;;;;;;;16.50;16.25;;;;;-147.17;100.00;-15917.19;5002409;28;51204;-58
2023/02/17 02:31:08;;;;;;;;;14.25;13.00;;;;;-147.17;100.00;-15917.19;5007013;28;51009;-58
2023/02/17 02:33:47;;;;;;;;;17.50;14.50;;;;;-147.17;100.00;-15917.19;4994526;28;51385;-58
2023/02/17 02:36:27;;;;;;;;;17.00;15.25;;;;;-147.17;100.00;-15917.19;5005443;28;51168;-58
2023/02/17 02:39:03;;;;;;;;;13.50;13.00;;;;;-147.17;100.00;-15917.19;5015019;28;51990;-58
2023/02/17 02:41:34;;;;;;;;;12.50;12.50;;;;;-147.17;100.00;-15917.19;5007319;28;51272;-58
2023/02/17 02:44:04;;;;;;;;;16.50;15.25;;;;;-147.17;100.00;-15917.19;5002142;28;52845;-58
2023/02/17 02:46:29;;;;;;;;;16.50;15.50;;;;;-147.17;100.00;-15917.19;4997494;28;51128;-58
2023/02/17 02:48:54;;;;;;;;;14.25;13.75;;;;;-147.17;100.00;-15917.19;5018727;28;51493;-58
2023/02/17 02:51:36;;;;;;;;;12.00;10.75;;;;;-147.17;100.00;-15917.19;5003829;28;51389;-58
2023/02/17 02:54:30;;;;;;;;;17.25;16.25;;;;;-147.17;100.00;-15917.19;4994681;28;51150;-58
2023/02/17 02:57:40;;;;;;;;;18.00;15.50;;;;;-147.17;100.00;-15917.19;5015140;28;51285;-59
2023/02/17 03:00:15;;;;;;;;;16.50;16.00;;;;;-147.17;100.00;-15917.19;4997976;28;51098;-57
2023/02/17 03:02:56;;;;;;;;;15.25;13.25;;;;;-147.17;100.00;-15917.19;5004380;28;51094;-57
2023/02/17 03:05:27;;;;;;;;;13.75;13.75;;;;;-147.17;100.00;-15917.19;5006594;28;51080;-58
2023/02/17 03:07:57;;;;;;;;;14.25;13.00;;;;;-147.17;100.00;-15917.19;5011587;28;50915;-57
2023/02/17 03:10:23;;;;;;;;;14.50;14.50;;;;;-147.17;100.00;-15917.19;5005885;28;51145;-57
2023/02/17 03:12:48;;;;;;;;;13.00;11.50;;;;;-147.17;100.00;-15917.19;5003574;28;52202;-56
2023/02/17 03:15:34;;;;;;;;;13.50;13.50;;;;;-147.17;100.00;-15917.19;5006372;28;51776;-57
2023/02/17 03:18:01;;;;;;;;;13.50;12.00;;;;;-147.17;100.00;-15917.19;4996537;28;51183;-57
2023/02/17 03:20:31;;;;;;;;;15.00;13.25;;;;;-147.17;100.00;-15917.19;5012393;28;51163;-56
2023/02/17 03:22:58;;;;;;;;;13.75;12.50;;;;;-147.17;100.00;-15917.19;4999484;28;51270;-57
2023/02/17 03:25:24;;;;;;;;;13.00;11.75;;;;;-147.17;100.00;-15917.19;4989758;28;51374;-57
2023/02/17 03:27:49;;;;;;;;;15.50;15.50;;;;;-147.17;100.00;-15917.19;5008748;28;51076;-57
2023/02/17 03:30:14;;;;;;;;;14.75;13.75;;;;;-147.17;100.00;-15917.19;5005597;28;51124;-57
2023/02/17 03:32:41;;;;;;;;;15.50;14.00;;;;;-147.17;100.00;-15917.19;4990820;28;51247;-57
2023/02/17 03:35:07;;;;;;;;;14.75;13.00;;;;;-147.17;100.00;-15917.19;4993432;28;52874;-57
2023/02/17 03:37:33;;;;;;;;;13.75;13.50;;;;;-147.17;100.00;-15917.19;4994701;28;51158;-56
2023/02/17 03:39:58;;;;;;;;;13.00;12.75;;;;;-147.17;100.00;-15917.19;4996046;28;51167;-56
2023/02/17 03:42:24;;;;;;;;;13.50;12.50;;;;;-147.17;100.00;-15917.19;5002314;28;51066;-57
2023/02/17 03:44:49;;;;;;;;;11.75;11.75;;;;;-147.17;100.00;-15917.19;5000972;28;51115;-56
2023/02/17 03:47:15;;;;;;;;;12.00;11.50;;;;;-147.17;100.00;-15917.19;4998075;28;51156;-56
2023/02/17 03:49:40;;;;;;;;;15.00;14.00;;;;;-147.17;100.00;-15917.19;5003152;28;51059;-57
2023/02/17 03:52:05;;;;;;;;;10.50;9.00;;;;;-147.17;100.00;-15917.19;4999812;28;51313;-56
2023/02/17 03:54:30;;;;;;;;;12.75;12.75;;;;;-147.17;100.00;-15917.19;5003692;28;51093;-57
2023/02/17 03:56:57;;;;;;;;;14.50;12.25;;;;;-147.17;100.00;-15917.19;4996025;28;51080;-57
2023/02/17 03:59:23;;;;;;;;;16.25;16.25;;;;;-147.17;100.00;-15917.19;5006315;28;51148;-57
2023/02/17 04:01:48;;;;;;;;;17.00;16.75;;;;;-147.17;100.00;-15917.19;4994676;28;51164;-56
2023/02/17 04:04:14;;;;;;;;;16.25;15.00;;;;;-147.17;100.00;-15917.19;4993404;28;51187;-57
2023/02/17 04:06:39;;;;;;;;;13.75;11.50;;;;;-147.17;100.00;-15917.19;4996336;28;51309;-57
2023/02/17 04:09:04;;;;;;;;;11.25;10.25;;;;;-147.17;100.00;-15917.19;5003461;28;51117;-57
2023/02/17 04:11:30;;;;;;;;;13.50;13.00;;;;;-147.17;100.00;-15917.19;5000893;28;51099;-57
2023/02/17 04:13:55;;;;;;;;;9.50;9.50;;;;;-147.17;100.00;-15917.19;5006279;28;51954;-58
2023/02/17 04:16:20;;;;;;;;;15.25;14.50;;;;;-147.17;100.00;-15917.19;5005940;28;51204;-57
2023/02/17 04:18:46;;;;;;;;;11.50;11.25;;;;;-147.17;100.00;-15917.19;5014027;28;51257;-57
2023/02/17 04:21:11;;;;;;;;;13.25;13.00;;;;;-147.17;100.00;-15917.19;4993537;28;51362;-57
2023/02/17 04:23:37;;;;;;;;;13.00;11.50;;;;;-147.17;100.00;-15917.19;4998043;28;52234;-56
2023/02/17 04:26:04;;;;;;;;;14.25;12.50;;;;;-147.17;100.00;-15917.19;4997426;28;50923;-57
2023/02/17 04:28:30;;;;;;;;;11.25;11.25;;;;;-147.17;100.00;-15917.19;5011421;28;50899;-58
2023/02/17 04:30:57;;;;;;;;;13.75;13.75;;;;;-147.17;100.00;-15917.19;5010609;28;51152;-57
2023/02/17 04:33:22;;;;;;;;;12.00;11.75;;;;;-147.17;100.00;-15917.19;4997008;28;51184;-57
2023/02/17 04:35:48;;;;;;;;;16.00;14.50;;;;;-147.17;100.00;-15917.19;5002255;28;51152;-57
2023/02/17 04:38:14;;;;;;;;;8.00;8.00;;;;;-147.17;100.00;-15917.19;5010939;28;51129;-56
2023/02/17 04:40:39;;;;;;;;;15.00;14.50;;;;;-147.17;100.00;-15917.19;4995279;28;51311;-56
2023/02/17 04:43:05;;;;;;;;;12.75;12.50;;;;;-147.17;100.00;-15917.19;4997224;28;51571;-57
2023/02/17 04:45:31;;;;;;;;;13.25;12.50;;;;;-147.17;100.00;-15917.19;4992276;28;51145;-57
2023/02/17 04:47:56;;;;;;;;;13.50;13.00;;;;;-147.17;100.00;-15917.19;4992807;28;51108;-58
2023/02/17 04:50:21;;;;;;;;;14.75;13.25;;;;;-147.17;100.00;-15917.19;4995684;28;51136;-57
2023/02/17 04:52:47;;;;;;;;;11.75;11.75;;;;;-147.17;100.00;-15917.19;4996562;28;51017;-56
2023/02/17 04:55:13;;;;;;;;;11.50;11.50;;;;;-147.17;100.00;-15917.19;5004736;28;51108;-56
2023/02/17 04:57:38;;;;;;;;;12.75;12.50;;;;;-147.17;100.00;-15917.19;4991506;28;53348;-56
2023/02/17 05:00:05;;;;;;;;;12.75;10.75;;;;;-147.17;100.00;-15917.19;5015856;28;51093;-56
2023/02/17 05:02:31;;;;;;;;;12.75;12.75;;;;;-147.17;100.00;-15917.19;5007883;28;51329;-57
2023/02/17 05:04:56;;;;;;;;;11.25;10.25;;;;;-147.17;100.00;-15917.19;4995183;28;51134;-57
2023/02/17 05:07:21;;;;;;;;;13.00;13.00;;;;;-147.17;100.00;-15917.19;5003020;28;51245;-57
2023/02/17 05:09:47;;;;;;;;;14.00;11.25;;;;;-147.17;100.00;-15917.19;5005618;28;51292;-57
2023/02/17 05:12:12;;;;;;;;;12.00;11.75;;;;;-147.17;100.00;-15917.19;5010947;28;51187;-56
2023/02/17 05:14:38;;;;;;;;;12.25;11.75;;;;;-147.17;100.00;-15917.19;5009664;28;51055;-57
2023/02/17 05:17:03;;;;;;;;;12.50;11.00;;;;;-147.17;100.00;-15917.19;4993909;28;51019;-56
2023/02/17 05:19:28;;;;;;;;;12.00;11.50;;;;;-147.17;100.00;-15917.19;4992459;28;51051;-57
2023/02/17 05:21:54;;;;;;;;;8.00;7.25;;;;;-147.17;100.00;-15917.19;5009408;28;50990;-57
2023/02/17 05:24:19;;;;;;;;;13.00;11.00;;;;;-147.17;100.00;-15917.19;5010281;28;51190;-57
2023/02/17 05:26:45;;;;;;;;;13.75;12.75;;;;;-147.17;100.00;-15917.19;4997964;28;52940;-56
2023/02/17 05:29:10;;;;;;;;;13.00;13.00;;;;;-147.17;100.00;-15917.19;4998470;28;51365;-56
2023/02/17 05:31:35;;;;;;;;;11.50;8.75;;;;;-147.17;100.00;-15917.19;5006201;28;51054;-57
2023/02/17 05:34:01;;;;;;;;;13.00;12.25;;;;;-147.17;100.00;-15917.19;5007277;28;51029;-57
2023/02/17 05:36:26;;;;;;;;;12.25;11.75;;;;;-147.17;100.00;-15917.19;4998687;28;51480;-56
2023/02/17 05:38:52;;;;;;;;;11.25;11.00;;;;;-147.17;100.00;-15917.19;5009904;28;50921;-56
2023/02/17 05:41:18;;;;;;;;;10.75;10.50;;;;;-147.17;100.00;-15917.19;5010013;28;51223;-57
2023/02/17 05:43:44;;;;;;;;;15.75;13.75;;;;;-147.17;100.00;-15917.19;5001798;28;51150;-57
2023/02/17 05:46:10;;;;;;;;;12.00;10.75;;;;;-147.17;100.00;-15917.19;4992097;28;50920;-57
2023/02/17 05:48:35;;;;;;;;;9.25;9.25;;;;;-147.17;100.00;-15917.19;4993545;28;50961;-57
2023/02/17 05:51:01;;;;;;;;;11.50;11.50;;;;;-147.17;100.00;-15917.19;5003952;28;52931;-57
2023/02/17 05:53:26;;;;;;;;;13.50;13.50;;;;;-147.17;100.00;-15917.19;5014963;28;51202;-57
2023/02/17 05:55:53;;;;;;;;;9.25;8.00;;;;;-147.17;100.00;-15917.19;5010268;28;51194;-58
2023/02/17 05:58:18;;;;;;;;;12.00;10.50;;;;;-147.17;100.00;-15917.19;5000102;28;51002;-58
2023/02/17 06:00:47;;;;;;;;;12.75;11.00;;;;;-147.17;100.00;-15917.19;5011471;28;51175;-58
2023/02/17 06:03:13;;;;;;;;;10.25;8.00;;;;;-147.17;100.00;-15917.19;5006071;28;51074;-57
2023/02/17 06:05:39;;;;;;;;;8.00;7.33;;;;;-147.17;100.00;-15917.19;4995293;28;50959;-58
2023/02/17 06:08:05;;;;;;;;;8.50;8.50;;;;;-147.17;100.00;-15917.19;5004417;28;51464;-58
2023/02/17 06:10:30;;;;;;;;;11.00;10.50;;;;;-147.17;100.00;-15917.19;5017140;28;53550;-58
2023/02/17 06:12:55;;;;;;;;;4.25;4.00;;;;;-147.17;100.00;-15917.19;4999940;28;51025;-57
2023/02/17 06:15:21;;;;;;;;;7.50;7.50;;;;;-147.17;100.00;-15917.19;5003771;28;51159;-57
2023/02/17 06:17:46;;;;;;;;;13.00;13.00;;;;;-147.17;100.00;-15917.19;5008067;28;50890;-57
2023/02/17 06:20:12;;;;;;;;;15.50;14.00;;;;;-147.17;100.00;-15917.19;5003325;28;52131;-57
2023/02/17 06:22:38;;;;;;;;;10.50;9.25;;;;;-147.17;100.00;-15917.19;4995642;28;51246;-56
2023/02/17 06:25:04;;;;;;;;;10.50;9.25;;;;;-147.17;100.00;-15917.19;5005519;28;50983;-58
2023/02/17 06:27:29;;;;;;;;;13.00;13.00;;;;;-147.17;100.00;-15917.19;5014764;28;50973;-58
2023/02/17 06:29:54;;;;;;;;;11.75;11.25;;;;;-147.17;100.00;-15917.19;5014753;28;51742;-57
2023/02/17 06:32:20;;;;;;;;;9.67;9.00;;;;;-147.17;100.00;-15917.19;5009413;28;51072;-57
2023/02/17 06:34:45;;;;;;;;;10.25;10.00;;;;;-147.17;100.00;-15917.19;5007429;28;51026;-57
2023/02/17 06:37:10;;;;;;;;;9.33;8.67;;;;;-147.17;100.00;-15917.19;4997516;28;51194;-57
2023/02/17 06:39:36;;;;;;;;;12.25;10.00;;;;;-147.17;100.00;-15917.19;5008045;28;52999;-58
2023/02/17 06:42:01;;;;;;;;;14.50;13.00;;;;;-147.17;100.00;-15917.19;4997600;28;51310;-56
2023/02/17 06:44:27;;;;;;;;;14.75;13.00;;;;;-147.17;100.00;-15917.19;5003004;28;50980;-57
2023/02/17 06:46:52;;;;;;;;;13.33;11.67;;;;;-147.17;100.00;-15917.19;4997609;28;51100;-57
2023/02/17 06:49:18;;;;;;;;;9.00;9.00;;;;;-147.17;100.00;-15917.19;4997946;28;51134;-57
2023/02/17 06:51:43;;;;;;;;;12.25;12.25;;;;;-147.17;100.00;-15917.19;5000290;28;51007;-57
2023/02/17 06:54:09;;;;;;;;;11.50;11.50;;;;;-147.17;100.00;-15917.19;5013657;28;50915;-57
2023/02/17 06:56:35;;;;;;;;;9.33;8.00;;;;;-147.17;100.00;-15917.19;5015309;28;50939;-57
2023/02/17 06:59:01;;;;;;;;;12.00;10.00;;;;;-147.17;100.00;-15917.19;5000813;28;51030;-61
2023/02/17 07:01:26;;;;;;;;;8.67;7.00;;;;;-147.17;100.00;-15917.19;4998516;28;51200;-56
2023/02/17 07:03:53;;;;;;;;;9.00;9.00;;;;;-147.17;100.00;-15917.19;5009960;28;51685;-57
2023/02/17 07:06:19;;;;;;;;;11.67;11.00;;;;;-147.17;100.00;-15917.19;5006294;28;51337;-57
2023/02/17 07:08:44;;;;;;;;;9.00;9.00;;;;;-147.17;100.00;-15917.19;5008034;28;53020;-56
2023/02/17 07:11:12;;;;;;;;;11.00;11.00;;;;;-147.17;100.00;-15917.19;5008744;28;51092;-56
2023/02/17 07:13:38;;;;;;;;;11.50;10.00;;;;;-147.17;100.00;-15917.19;5032898;28;50997;-57
2023/02/17 07:16:04;;;;;;;;;11.25;11.25;;;;;-147.17;100.00;-15917.19;5011938;28;51357;-56
2023/02/17 07:18:29;;;;;;;;;11.00;9.00;;;;;-147.17;100.00;-15917.19;5010355;28;53273;-58
2023/02/17 07:20:55;;;;;;;;;9.00;8.00;;;;;-147.17;100.00;-15917.19;5012867;28;50979;-57
2023/02/17 07:23:21;;;;;;;;;12.67;11.67;;;;;-147.17;100.00;-15917.19;5015326;28;51288;-57
2023/02/17 07:25:46;;;;;;;;;12.00;11.25;;;;;-147.17;100.00;-15917.19;5024346;28;50959;-58
2023/02/17 07:28:12;;;;;;;;;12.00;11.00;;;;;-147.17;100.00;-15917.19;5028043;28;51718;-57
2023/02/17 07:30:42;;;;;;;;;13.00;11.00;;;;;-147.17;100.00;-15917.19;5017543;28;51083;-59
2023/02/17 07:33:08;;;;;;;;;8.50;7.50;;;;;-147.17;100.00;-15917.19;5026669;28;51118;-57
2023/02/17 07:35:34;;;;;;;;;10.33;9.00;;;;;-147.17;100.00;-15917.19;5026071;28;51210;-56
2023/02/17 07:37:59;;;;;;;;;10.50;10.00;;;;;-147.17;100.00;-15917.19;5014123;28;51416;-58
2023/02/17 07:40:26;;;;;;;;;10.00;10.00;;;;;-147.17;100.00;-15917.19;5020919;28;51168;-58
2023/02/17 07:42:51;;;;;;;;;9.33;8.00;;;;;-147.17;100.00;-15917.19;5023810;28;51058;-58
2023/02/17 07:45:17;;;;;;;;;9.67;9.00;;;;;-147.17;100.00;-15917.19;5018784;28;51321;-59
2023/02/17 07:47:42;;;;;;;;;7.33;7.33;;;;;-147.17;100.00;-15917.19;4993167;28;53643;-57
2023/02/17 07:50:08;;;;;;;;;12.50;11.50;;;;;-147.17;100.00;-15917.19;5025299;28;51081;-58
2023/02/17 07:52:34;;;;;;;;;9.00;8.00;;;;;-147.17;100.00;-15917.19;5018666;28;51308;-59
2023/02/17 07:54:59;;;;;;;;;12.25;12.25;;;;;-147.17;100.00;-15917.19;5004446;28;51356;-58
2023/02/17 07:57:25;;;;;;;;;15.50;13.25;;;;;-147.17;100.00;-15917.19;5023352;28;51496;-58
2023/02/17 07:59:50;;;;;;;;;13.75;13.00;;;;;-147.17;100.00;-15917.19;5020891;28;51086;-58
2023/02/17 08:02:16;;;;;;;;;7.75;7.75;;;;;-147.17;100.00;-15917.19;5020061;28;51004;-57
2023/02/17 08:04:42;;;;;;;;;5.67;5.67;;;;;-147.17;100.00;-15917.19;5014422;28;51310;-57
2023/02/17 08:07:07;;;;;;;;;8.00;7.33;;;;;-147.17;100.00;-15917.19;5019841;28;51792;-57
2023/02/17 08:15:06;;;;;;;;;4.33;4.33;;;;;-147.17;100.00;-15917.19;5001334;28;50917;-57
2023/02/17 08:17:31;;;;;;;;;6.67;6.67;;;;;-147.17;100.00;-15917.19;5003324;28;51086;-57
2023/02/17 08:19:57;;;;;;;;;7.00;7.00;;;;;-147.17;100.00;-15917.19;5028858;28;51028;-57
2023/02/17 08:22:22;;;;;;;;;5.67;5.00;;;;;-147.17;100.00;-15917.19;5020546;28;51104;-57
2023/02/17 08:24:48;;;;;;;;;6.00;5.33;;;;;-147.17;100.00;-15917.19;5004883;28;51045;-57
2023/02/17 08:27:14;;;;;;;;;7.25;7.00;;;;;-147.17;100.00;-15917.19;5015148;28;51760;-57
2023/02/17 08:29:40;;;;;;;;;5.00;5.00;;;;;-147.17;100.00;-15917.19;5015566;28;51089;-57
2023/02/17 08:32:06;;;;;;;;;8.33;5.00;;;;;-147.17;100.00;-15917.19;5022508;28;51360;-57
2023/02/17 08:34:35;;;;;;;;;5.33;5.33;;;;;-147.17;100.00;-15917.19;5013288;28;51082;-56
2023/02/17 08:37:01;;;;;;;;;6.00;5.33;;;;;-147.17;100.00;-15917.19;5017408;28;52694;-57
2023/02/17 08:39:26;;;;;;;;;8.67;8.67;;;;;-147.17;100.00;-15917.19;5019816;28;51162;-58
2023/02/17 08:41:52;;;;;;;;;5.00;5.00;;;;;-147.17;100.00;-15917.19;5011523;28;51205;-57
2023/02/17 08:44:19;;;;;;;;;5.00;5.00;;;;;-147.17;100.00;-15917.19;5036023;28;51397;-57
2023/02/17 08:46:47;;;;;;;;;7.00;5.67;;;;;-147.17;100.00;-15917.19;5016208;28;51149;-58
2023/02/17 08:49:14;;;;;;;;;7.00;5.33;;;;;-147.17;100.00;-15917.19;5012665;28;50939;-58
2023/02/17 08:51:40;;;;;;;;;5.00;4.67;;;;;-147.17;100.00;-15917.19;5019547;28;50955;-57
2023/02/17 08:54:09;;;;;;;;;6.00;5.00;;;;;-147.17;100.00;-15917.19;5022549;28;51432;-58
2023/02/17 08:56:37;;;;;;;;;7.00;6.00;;;;;-147.17;100.00;-15917.19;5011812;28;52811;-57
2023/02/17 08:59:04;;;;;;;;;5.00;4.00;;;;;-147.17;100.00;-15917.19;5013167;28;50955;-58
2023/02/17 09:01:30;;;;;;;;;6.00;4.33;;;;;-147.17;100.00;-15917.19;5012051;28;50923;-58
2023/02/17 09:03:57;;;;;;;;;5.00;5.00;;;;;-147.17;100.00;-15917.19;5021780;28;51018;-59
2023/02/17 09:06:23;;;;;;;;;10.00;10.00;;;;;-147.17;100.00;-15917.19;5031102;28;51257;-57
2023/02/17 09:08:49;;;;;;;;;7.00;6.67;;;;;-147.17;100.00;-15917.19;5017860;28;51081;-58
2023/02/17 09:11:16;;;;;;;;;6.00;6.00;;;;;-147.17;100.00;-15917.19;5021649;28;51190;-57
2023/02/17 09:13:43;;;;;;;;;9.00;6.00;;;;;-147.17;100.00;-15917.19;5022374;28;51109;-57
2023/02/17 09:16:09;;;;;;;;;6.00;5.67;;;;;-147.17;100.00;-15917.19;5011413;28;51926;-58
2023/02/17 09:18:35;;;;;;;;;6.67;6.67;;;;;-147.17;100.00;-15917.19;5010965;28;51098;-58
2023/02/17 09:21:09;;;;;;;;;8.00;7.33;;;;;-147.17;100.00;-15917.19;5011798;28;51151;-58
2023/02/17 09:23:35;;;;;;;;;4.00;4.00;;;;;-147.17;100.00;-15917.19;5013395;28;51212;-57
2023/02/17 09:26:06;;;;;;;;;5.00;5.00;;;;;-147.17;100.00;-15917.19;5018766;28;51887;-57
2023/02/17 09:28:32;;;;;;;;;8.00;7.00;;;;;-147.17;100.00;-15917.19;5018054;28;51091;-63
2023/02/17 09:30:58;;;;;;;;;6.00;5.67;;;;;-147.17;100.00;-15917.19;5022383;28;51052;-60
2023/02/17 09:33:24;;;;;;;;;6.00;5.33;;;;;-147.17;100.00;-15917.19;5021157;28;51368;-57
2023/02/17 09:35:50;;;;;;;;;7.00;5.00;;;;;-147.17;100.00;-15917.19;5014948;28;51112;-58
2023/02/17 09:38:15;;;;;;;;;8.00;7.67;;;;;-147.17;100.00;-15917.19;5031961;28;51063;-57
2023/02/17 09:40:47;;;;;;;;;7.00;6.00;;;;;-147.17;100.00;-15917.19;5034909;28;50939;-57
2023/02/17 09:43:15;;;;;;;;;4.00;4.00;;;;;-147.17;100.00;-15917.19;5034852;28;50934;-58
2023/02/17 09:45:47;;;;;;;;;4.00;3.00;;;;;-147.17;100.00;-15917.19;5022735;28;52147;-58
2023/02/17 09:48:17;;;;;;;;;4.33;4.33;;;;;-147.17;100.00;-15917.19;5014261;28;51002;-58
2023/02/17 09:50:55;;;;;;;;;8.00;6.67;;;;;-147.17;100.00;-15917.19;5013843;28;51289;-57
2023/02/17 09:53:59;;;;;;;;;5.00;5.00;;;;;-147.17;100.00;-15917.19;5022924;28;50991;-58
2023/02/17 09:56:32;;;;;;;;;5.00;5.00;;;;;-147.17;100.00;-15917.19;5004954;28;51914;-57
2023/02/17 09:59:13;;;;;;;;;5.67;5.00;;;;;-147.17;100.00;-15917.19;5033396;28;50954;-58
2023/02/17 10:01:40;;;;;;;;;12.33;9.00;;;;;-147.17;100.00;-15917.19;5026735;28;51452;-58
2023/02/17 10:04:13;;;;;;;;;7.00;6.00;;;;;-147.17;100.00;-15917.19;5025940;28;51132;-58
2023/02/17 10:06:44;;;;;;;;;5.00;5.00;;;;;-147.17;100.00;-15917.19;5034318;28;52073;-57
2023/02/17 10:09:51;;;;;;;;;5.00;5.00;;;;;-147.17;100.00;-15917.19;5017621;28;50983;-58
2023/02/17 10:12:25;;;;;;;;;7.67;7.00;;;;;-147.17;100.00;-15917.19;4953741;28;51358;-58
2023/02/17 10:15:04;;;;;;;;;6.67;6.00;;;;;-147.17;100.00;-15917.19;5006299;28;51061;-57
2023/02/17 10:17:39;;;;;;;;;6.67;6.67;;;;;-147.17;100.00;-15917.19;4996912;28;53030;-59
2023/02/17 10:20:09;;;;;;;;;5.00;5.00;;;;;-147.17;100.00;-15917.19;5014045;28;51083;-56
2023/02/17 10:22:35;;;;;;;;;6.00;6.00;;;;;-147.17;100.00;-15917.19;4996339;28;51089;-58
2023/02/17 10:25:12;;;;;;;;;7.67;5.67;;;;;-147.17;100.00;-15917.19;5014372;28;50917;-57
2023/02/17 10:28:01;;;;;;;;;3.00;3.00;;;;;-147.17;100.00;-15917.19;5014449;28;51765;-57
2023/02/17 10:30:52;;;;;;;;;4.33;4.33;;;;;-147.17;100.00;-15917.19;5014141;28;50992;-58
2023/02/17 10:33:24;;;;;;;;;6.67;5.67;;;;;-147.17;100.00;-15917.19;5020906;28;51249;-57
2023/02/17 10:35:52;;;;;;;;;2.00;2.00;;;;;-147.17;100.00;-15917.19;5013413;28;51312;-58
2023/02/17 10:38:45;;;;;;;;;4.00;4.00;;;;;-147.17;100.00;-15917.19;5014383;28;51292;-57
2023/02/17 10:41:14;;;;;;;;;4.00;3.00;;;;;-147.17;100.00;-15917.19;5016934;28;51177;-58
2023/02/17 10:43:42;;;;;;;;;5.33;5.33;;;;;-147.17;100.00;-15917.19;5022378;28;51165;-59
2023/02/17 10:46:08;;;;;;;;;4.67;4.67;;;;;-147.17;100.00;-15917.19;5014206;28;51068;-59
2023/02/17 10:48:49;;;;;;;;;6.67;6.67;;;;;-147.17;100.00;-15917.19;5013801;28;51120;-59
2023/02/17 10:51:18;;;;;;;;;9.67;8.67;;;;;-147.17;100.00;-15917.19;5020032;28;51236;-59
2023/02/17 10:53:48;;;;;;;;;5.67;5.00;;;;;-147.17;100.00;-15917.19;5034074;28;51089;-58
2023/02/17 10:56:31;;;;;;;;;6.00;6.00;;;;;-147.17;100.00;-15917.19;5007587;28;50901;-58
2023/02/17 10:59:07;;;;;;;;;11.67;10.67;;;;;-147.17;100.00;-15917.19;5031157;28;51153;-60
2023/02/17 11:01:35;;;;;;;;;6.00;5.00;;;;;-147.17;100.00;-15917.19;5021777;28;51012;-60
2023/02/17 11:04:04;;;;;;;;;8.00;7.00;;;;;-147.17;100.00;-15917.19;5019692;28;51028;-59